createdAt,value
2023-01-25T00:01:15.300Z,4.40
2023-01-25T00:03:42.430Z,4.40
2023-01-25T00:06:17.110Z,4.50
2023-01-25T00:08:45.793Z,4.60
2023-01-25T00:11:21.053Z,4.60
2023-01-25T00:13:55.455Z,4.50
2023-01-25T00:16:23.213Z,4.40
2023-01-25T00:18:50.257Z,4.40
2023-01-25T00:21:29.070Z,4.30
2023-01-25T00:23:57.467Z,4.30
2023-01-25T00:26:31.138Z,4.40
2023-01-25T00:28:58.248Z,4.30
2023-01-25T00:31:42.180Z,4.20
2023-01-25T00:34:34.070Z,4.10
2023-01-25T00:37:25.638Z,4.10
2023-01-25T00:40:00.312Z,4.10
2023-01-25T00:42:28.094Z,4.10
2023-01-25T00:45:02.068Z,4.10
2023-01-25T00:47:29.568Z,4.20
2023-01-25T00:49:56.867Z,4.20
2023-01-25T00:52:31.100Z,4.10
2023-01-25T00:55:05.514Z,4.10
2023-01-25T00:57:32.878Z,4.10
2023-01-25T01:00:00.698Z,4.10
2023-01-25T01:02:35.130Z,4.00
2023-01-25T01:05:16.615Z,3.90
2023-01-25T01:07:51.151Z,3.90
2023-01-25T01:10:19.699Z,3.90
2023-01-25T01:12:47.005Z,4.00
2023-01-25T01:15:20.118Z,4.10
2023-01-25T01:17:47.077Z,4.30
2023-01-25T01:20:15.207Z,4.40
2023-01-25T01:22:53.473Z,4.60
2023-01-25T01:25:20.632Z,4.70
2023-01-25T01:27:55.110Z,4.70
2023-01-25T01:30:23.838Z,4.70
2023-01-25T01:32:51.985Z,4.70
2023-01-25T01:35:26.553Z,4.80
2023-01-25T01:38:01.188Z,4.70
2023-01-25T01:40:28.809Z,4.70
2023-01-25T01:43:15.342Z,4.50
2023-01-25T01:45:49.409Z,4.40
2023-01-25T01:48:45.063Z,4.40
2023-01-25T01:51:58.242Z,4.50
2023-01-25T01:55:03.170Z,4.50
2023-01-25T01:57:42.506Z,4.70
2023-01-25T02:00:23.161Z,4.80
2023-01-25T02:02:51.296Z,4.80
2023-01-25T02:06:02.829Z,4.80
2023-01-25T02:08:33.085Z,4.70
2023-01-25T02:11:08.647Z,4.70
2023-01-25T02:13:36.312Z,4.80
2023-01-25T02:16:10.125Z,5.00
2023-01-25T02:18:37.134Z,5.00
2023-01-25T02:21:11.112Z,4.90
2023-01-25T02:24:16.250Z,4.90
2023-01-25T02:26:43.336Z,5.10
2023-01-25T02:29:10.314Z,5.10
2023-01-25T02:31:44.201Z,4.90
2023-01-25T02:34:11.303Z,4.80
2023-01-25T02:36:45.172Z,4.80
2023-01-25T02:39:15.075Z,4.80
2023-01-25T02:41:50.066Z,4.80
2023-01-25T02:44:29.194Z,4.90
2023-01-25T02:46:56.209Z,4.90
2023-01-25T02:49:30.145Z,5.00
2023-01-25T02:52:04.118Z,5.10
2023-01-25T02:54:31.206Z,5.00
2023-01-25T02:57:05.176Z,5.10
2023-01-25T02:59:32.216Z,5.20
2023-01-25T03:01:59.247Z,5.30
2023-01-25T03:04:33.114Z,5.20
2023-01-25T03:07:00.127Z,5.20
2023-01-25T03:09:34.233Z,5.20
2023-01-25T03:12:01.393Z,5.10
2023-01-25T03:14:35.124Z,5.00
2023-01-25T03:17:08.164Z,5.10
2023-01-25T03:19:42.163Z,5.10
2023-01-25T03:22:09.289Z,5.10
2023-01-25T03:24:43.238Z,5.20
2023-01-25T03:27:10.225Z,5.30
2023-01-25T03:29:38.047Z,5.10
2023-01-25T03:32:12.201Z,5.00
2023-01-25T03:34:39.266Z,4.90
2023-01-25T03:37:13.276Z,4.90
2023-01-25T03:39:40.908Z,5.00
2023-01-25T03:42:14.112Z,5.20
2023-01-25T03:44:41.221Z,5.10
2023-01-25T03:47:08.332Z,5.00
2023-01-25T03:49:42.233Z,4.70
2023-01-25T03:52:09.255Z,4.60
2023-01-25T03:54:43.168Z,4.70
2023-01-25T03:57:10.302Z,4.80
2023-01-25T03:59:44.169Z,4.70
2023-01-25T04:02:11.322Z,4.60
2023-01-25T04:04:38.310Z,4.70
2023-01-25T04:07:12.156Z,4.60
2023-01-25T04:09:39.230Z,4.70
2023-01-25T04:12:06.501Z,4.80
2023-01-25T04:14:44.751Z,4.90
2023-01-25T04:17:11.959Z,5.00
2023-01-25T04:19:45.144Z,5.00
2023-01-25T04:22:12.271Z,5.10
2023-01-25T04:24:39.339Z,5.00
2023-01-25T04:27:13.196Z,5.00
2023-01-25T04:29:42.013Z,4.90
2023-01-25T04:32:16.305Z,4.90
2023-01-25T04:34:43.456Z,5.00
2023-01-25T04:37:17.307Z,5.10
2023-01-25T04:39:44.385Z,5.10
2023-01-25T04:42:11.364Z,5.20
2023-01-25T04:44:45.183Z,5.30
2023-01-25T04:47:12.249Z,5.20
2023-01-25T04:49:52.216Z,5.30
2023-01-25T04:52:19.623Z,5.30
2023-01-25T04:54:53.239Z,5.50
2023-01-25T04:57:20.405Z,5.50
2023-01-25T04:59:47.391Z,5.60
2023-01-25T05:02:21.249Z,5.60
2023-01-25T05:04:48.340Z,5.70
2023-01-25T05:07:22.304Z,5.70
2023-01-25T05:09:49.322Z,5.70
2023-01-25T05:12:16.383Z,5.60
2023-01-25T05:14:50.211Z,5.70
2023-01-25T05:17:17.168Z,5.50
2023-01-25T05:19:50.236Z,5.50
2023-01-25T05:22:18.339Z,5.50
2023-01-25T05:24:52.192Z,5.40
2023-01-25T05:27:26.227Z,5.30
2023-01-25T05:29:53.409Z,5.10
2023-01-25T05:32:21.973Z,5.10
2023-01-25T05:34:55.244Z,5.10
2023-01-25T05:37:22.358Z,4.90
2023-01-25T05:39:56.264Z,4.80
2023-01-25T05:42:23.293Z,4.80
2023-01-25T05:44:57.184Z,4.60
2023-01-25T05:47:24.158Z,4.60
2023-01-25T05:49:57.250Z,4.50
2023-01-25T05:52:24.250Z,4.50
2023-01-25T05:54:57.248Z,4.50
2023-01-25T05:57:24.354Z,4.50
2023-01-25T05:59:51.461Z,4.50
2023-01-25T06:03:37.868Z,4.40
2023-01-25T06:06:05.181Z,4.40
2023-01-25T06:08:32.501Z,4.40
2023-01-25T06:11:12.883Z,4.30
2023-01-25T06:13:46.850Z,4.30
2023-01-25T06:16:13.953Z,4.20
2023-01-25T06:18:47.876Z,4.20
2023-01-25T06:21:21.804Z,4.20
2023-01-25T06:23:48.906Z,4.20
2023-01-25T06:26:16.074Z,4.30
2023-01-25T06:28:50.685Z,4.30
2023-01-25T06:31:18.854Z,4.30
2023-01-25T06:33:58.856Z,4.40
2023-01-25T06:36:26.821Z,4.70
2023-01-25T06:39:00.825Z,4.70
2023-01-25T06:41:27.832Z,4.70
2023-01-25T06:44:01.807Z,4.70
2023-01-25T06:46:28.853Z,4.90
2023-01-25T06:49:02.785Z,4.90
2023-01-25T06:51:29.863Z,4.80
2023-01-25T06:54:03.877Z,4.80
2023-01-25T06:56:30.852Z,4.80
2023-01-25T06:59:04.797Z,4.80
2023-01-25T07:01:31.748Z,4.80
2023-01-25T07:04:08.058Z,4.70
2023-01-25T07:06:35.124Z,4.80
2023-01-25T07:09:13.859Z,5.00
2023-01-25T07:11:40.958Z,5.10
2023-01-25T07:14:14.812Z,5.20
2023-01-25T07:16:48.863Z,5.30
2023-01-25T07:19:15.738Z,5.40
2023-01-25T07:21:48.853Z,5.60
2023-01-25T07:24:17.662Z,5.60
2023-01-25T07:26:44.754Z,5.80
2023-01-25T07:29:22.864Z,5.90
2023-01-25T07:31:49.897Z,5.90
2023-01-25T07:34:16.890Z,5.90
2023-01-25T07:36:50.864Z,5.90
2023-01-25T07:39:17.880Z,6.00
2023-01-25T07:41:51.838Z,6.00
2023-01-25T07:44:25.875Z,6.00
2023-01-25T07:46:53.922Z,5.90
2023-01-25T07:49:27.851Z,5.90
2023-01-25T07:51:54.935Z,5.90
2023-01-25T07:54:23.730Z,6.00
2023-01-25T07:56:56.797Z,6.10
2023-01-25T07:59:24.700Z,6.20
2023-01-25T08:01:57.823Z,6.00
2023-01-25T08:04:24.864Z,6.00
2023-01-25T08:06:57.845Z,6.10
2023-01-25T08:09:24.862Z,6.70
2023-01-25T08:11:51.965Z,7.30
2023-01-25T08:14:25.894Z,7.40
2023-01-25T08:16:52.847Z,7.30
2023-01-25T08:19:19.907Z,7.10
2023-01-25T08:21:53.851Z,7.00
2023-01-25T08:24:21.121Z,7.20
2023-01-25T08:26:54.857Z,7.70
2023-01-25T08:29:21.871Z,7.80
2023-01-25T08:31:55.894Z,7.60
2023-01-25T08:34:29.856Z,7.30
2023-01-25T08:36:56.875Z,7.00
2023-01-25T08:39:30.837Z,7.00
2023-01-25T08:41:57.912Z,7.10
2023-01-25T08:44:31.816Z,7.20
2023-01-25T08:47:06.181Z,7.00
2023-01-25T08:49:40.119Z,6.80
2023-01-25T08:52:07.377Z,6.70
2023-01-25T08:54:40.973Z,6.80
2023-01-25T08:57:07.891Z,6.70
2023-01-25T08:59:41.894Z,6.80
2023-01-25T09:02:18.933Z,6.80
2023-01-25T09:04:45.940Z,6.90
2023-01-25T09:07:19.939Z,7.00
2023-01-25T09:09:46.994Z,7.00
2023-01-25T09:12:14.020Z,7.00
2023-01-25T09:14:47.882Z,7.10
2023-01-25T09:17:14.872Z,7.00
2023-01-25T09:19:47.933Z,7.00
2023-01-25T09:22:14.867Z,7.00
2023-01-25T09:24:48.965Z,7.00
2023-01-25T09:27:16.023Z,7.10
2023-01-25T09:30:01.334Z,7.10
2023-01-25T09:32:29.255Z,7.20
2023-01-25T09:35:02.842Z,7.20
2023-01-25T09:37:29.810Z,7.10
2023-01-25T09:40:02.942Z,7.10
2023-01-25T09:42:56.818Z,7.20
2023-01-25T09:45:38.941Z,7.20
2023-01-25T09:48:20.928Z,7.30
2023-01-25T09:51:27.002Z,7.40
2023-01-25T09:54:00.944Z,7.50
2023-01-25T09:56:33.596Z,7.60
2023-01-25T09:59:10.943Z,7.70
2023-01-25T10:02:31.315Z,7.90
2023-01-25T10:05:12.894Z,8.00
2023-01-25T10:08:04.090Z,8.00
2023-01-25T10:10:44.946Z,8.00
2023-01-25T10:13:19.885Z,8.00
2023-01-25T10:15:57.414Z,7.80
2023-01-25T10:18:48.919Z,7.80
2023-01-25T10:21:37.966Z,7.90
2023-01-25T10:24:40.702Z,7.90
2023-01-25T10:27:42.916Z,7.90
2023-01-25T10:30:50.962Z,8.10
2023-01-25T10:33:19.721Z,8.20
2023-01-25T10:35:48.576Z,8.30
2023-01-25T10:38:32.947Z,8.30
2023-01-25T10:41:05.362Z,8.50
2023-01-25T10:43:39.056Z,8.70
2023-01-25T10:46:23.717Z,8.80
2023-01-25T10:48:56.971Z,8.80
2023-01-25T10:51:34.170Z,8.70
2023-01-25T11:16:03.981Z,9.60
2023-01-25T11:53:12.967Z,11.50
2023-01-25T11:56:41.166Z,11.80
2023-01-25T11:59:33.824Z,11.90
2023-01-25T12:02:33.037Z,11.90
2023-01-25T12:05:24.633Z,11.80
2023-01-25T12:08:07.177Z,11.80
2023-01-25T12:11:17.132Z,11.80
2023-01-25T12:14:21.457Z,11.70
2023-01-25T12:17:47.358Z,11.80
2023-01-25T12:21:13.389Z,12.10
2023-01-25T12:24:38.912Z,12.40
2023-01-25T12:27:40.035Z,12.60
2023-01-25T12:31:05.098Z,12.50
2023-01-25T12:33:45.729Z,12.40
2023-01-25T12:36:52.060Z,12.20
2023-01-25T12:39:52.129Z,12.00
2023-01-25T12:42:32.970Z,11.90
2023-01-25T12:45:05.938Z,11.90
2023-01-25T12:48:11.021Z,12.10
2023-01-25T12:51:02.948Z,12.30
2023-01-25T12:53:42.543Z,12.60
2023-01-25T12:56:33.467Z,12.80
2023-01-25T12:59:35.018Z,12.50
2023-01-25T13:10:33.182Z,12.00
2023-01-25T13:13:24.730Z,11.90
2023-01-25T13:15:59.001Z,12.00
2023-01-25T13:18:30.531Z,12.00
2023-01-25T13:21:06.042Z,12.10
2023-01-25T13:23:44.224Z,12.00
2023-01-25T13:26:29.961Z,12.10
2023-01-25T13:29:17.017Z,12.00
2023-01-25T13:31:53.321Z,12.20
2023-01-25T13:34:43.189Z,12.10
2023-01-25T13:37:31.078Z,11.80
2023-01-25T13:40:43.084Z,11.70
2023-01-25T13:43:22.962Z,11.70
2023-01-25T13:45:52.524Z,11.70
2023-01-25T13:48:31.505Z,11.70
2023-01-25T13:51:04.395Z,11.80
2023-01-25T13:53:38.059Z,11.80
2023-01-25T13:56:11.970Z,11.90
2023-01-25T13:58:53.068Z,12.00
2023-01-25T14:01:20.632Z,12.00
2023-01-25T14:04:06.058Z,12.10
2023-01-25T14:06:46.086Z,12.20
2023-01-25T14:09:17.900Z,12.20
2023-01-25T14:11:57.079Z,12.20
2023-01-25T14:14:36.467Z,12.10
2023-01-25T14:17:24.153Z,12.00
2023-01-25T14:19:55.170Z,11.90
2023-01-25T14:22:34.081Z,11.90
2023-01-25T14:25:32.020Z,11.90
2023-01-25T14:28:10.032Z,11.90
2023-01-25T14:30:37.156Z,12.00
2023-01-25T14:33:40.022Z,11.90
2023-01-25T14:36:24.364Z,11.90
2023-01-25T14:38:59.051Z,12.00
2023-01-25T14:41:28.994Z,12.10
2023-01-25T14:43:58.363Z,12.30
2023-01-25T14:46:39.090Z,12.40
2023-01-25T14:49:12.204Z,12.30
2023-01-25T14:52:05.114Z,12.40
2023-01-25T14:54:37.448Z,12.40
2023-01-25T14:57:13.069Z,12.30
2023-01-25T14:59:45.264Z,12.20
2023-01-25T15:02:41.221Z,12.10
2023-01-25T15:05:23.188Z,12.10
2023-01-25T15:08:04.043Z,11.90
2023-01-25T15:10:39.095Z,11.90
2023-01-25T15:13:15.576Z,11.80
2023-01-25T15:16:07.016Z,11.80
2023-01-25T15:18:51.609Z,11.80
2023-01-25T15:21:26.047Z,11.80
2023-01-25T15:23:54.017Z,11.70
2023-01-25T15:26:38.079Z,11.60
2023-01-25T15:29:17.063Z,11.50
2023-01-25T15:31:51.090Z,11.40
2023-01-25T15:34:21.148Z,11.40
2023-01-25T15:36:55.106Z,11.30
2023-01-25T15:39:22.246Z,11.30
2023-01-25T15:41:56.191Z,11.20
2023-01-25T15:44:23.290Z,11.10
2023-01-25T15:46:51.171Z,11.00
2023-01-25T15:49:33.106Z,10.90
2023-01-25T15:52:07.105Z,10.80
2023-01-25T15:54:48.586Z,10.80
2023-01-25T15:57:32.173Z,10.70
2023-01-25T16:00:06.115Z,10.60
2023-01-25T16:02:33.059Z,10.50
2023-01-25T16:05:00.130Z,10.50
2023-01-25T16:07:36.189Z,10.40
2023-01-25T16:10:10.431Z,10.30
2023-01-25T16:12:37.747Z,10.20
2023-01-25T16:15:12.149Z,10.10
2023-01-25T16:17:46.155Z,10.10
2023-01-25T16:20:21.034Z,10.00
2023-01-25T16:22:54.104Z,10.00
2023-01-25T16:25:21.245Z,9.90
2023-01-25T16:27:56.081Z,9.80
2023-01-25T16:30:25.032Z,9.70
2023-01-25T16:32:59.044Z,9.60
2023-01-25T16:35:32.075Z,9.60
2023-01-25T16:37:59.084Z,9.50
2023-01-25T16:40:35.103Z,9.50
2023-01-25T16:43:09.175Z,9.40
2023-01-25T16:45:36.215Z,9.40
2023-01-25T16:48:10.058Z,9.20
2023-01-25T16:50:37.106Z,9.10
2023-01-25T16:53:10.091Z,9.00
2023-01-25T16:55:37.828Z,8.90
2023-01-25T16:58:04.799Z,8.80
2023-01-25T17:00:38.101Z,8.70
2023-01-25T17:03:11.180Z,8.60
2023-01-25T17:05:45.095Z,8.50
2023-01-25T17:08:19.113Z,8.40
2023-01-25T17:10:59.143Z,8.20
2023-01-25T17:13:26.183Z,8.10
2023-01-25T17:16:03.187Z,8.00
2023-01-25T17:18:30.173Z,7.90
2023-01-25T17:21:01.903Z,7.80
2023-01-25T17:23:35.143Z,7.70
2023-01-25T17:26:19.106Z,7.50
2023-01-25T17:28:53.168Z,7.50
2023-01-25T17:31:29.127Z,7.40
2023-01-25T17:34:03.131Z,7.40
2023-01-25T17:36:30.096Z,7.30
2023-01-25T17:39:07.153Z,7.30
2023-01-25T17:41:34.393Z,7.20
2023-01-25T17:44:08.169Z,7.00
2023-01-25T17:46:42.138Z,6.80
2023-01-25T17:49:12.415Z,6.60
2023-01-25T17:51:46.199Z,6.50
2023-01-25T17:54:13.334Z,6.40
2023-01-25T17:56:47.217Z,6.30
2023-01-25T17:59:14.316Z,6.20
2023-01-25T18:01:41.866Z,6.10
2023-01-25T18:04:16.204Z,6.00
2023-01-25T18:06:43.319Z,5.90
2023-01-25T18:09:17.152Z,5.80
2023-01-25T18:11:44.200Z,5.70
2023-01-25T18:14:19.184Z,5.60
2023-01-25T18:16:46.126Z,5.50
2023-01-25T18:19:20.185Z,5.50
2023-01-25T18:21:47.159Z,5.50
2023-01-25T18:24:40.151Z,5.60
2023-01-25T18:27:19.355Z,5.60
2023-01-25T18:30:11.320Z,5.50
2023-01-25T18:32:38.376Z,5.60
2023-01-25T18:35:12.561Z,5.50
2023-01-25T18:37:39.893Z,5.50
2023-01-25T18:40:08.013Z,5.40
2023-01-25T18:42:41.216Z,5.40
2023-01-25T18:45:12.040Z,5.40
2023-01-25T18:47:46.154Z,5.50
2023-01-25T18:50:13.372Z,5.40
2023-01-25T18:52:47.220Z,5.20
2023-01-25T18:55:14.187Z,5.00
2023-01-25T18:57:41.204Z,4.90
2023-01-25T19:00:15.189Z,4.80
2023-01-25T19:02:42.203Z,4.70
2023-01-25T19:05:16.246Z,4.60
2023-01-25T19:07:56.114Z,4.60
2023-01-25T19:10:29.190Z,4.40
2023-01-25T19:13:03.146Z,4.30
2023-01-25T19:15:30.195Z,4.30
2023-01-25T19:18:04.294Z,4.20
2023-01-25T19:20:31.367Z,4.20
2023-01-25T19:23:05.224Z,4.30
2023-01-25T19:25:32.209Z,4.20
2023-01-25T19:28:06.193Z,4.10
2023-01-25T19:30:33.254Z,4.00
2023-01-25T19:33:07.266Z,3.90
2023-01-25T19:35:42.273Z,3.80
2023-01-25T19:38:09.432Z,3.70
2023-01-25T19:40:43.218Z,3.70
2023-01-25T19:43:10.287Z,3.60
2023-01-25T19:45:44.235Z,3.60
2023-01-25T19:48:11.216Z,3.60
2023-01-25T19:50:45.289Z,3.50
2023-01-25T19:53:12.447Z,3.60
2023-01-25T19:55:46.253Z,3.60
2023-01-25T19:58:20.211Z,3.50
2023-01-25T20:00:47.273Z,3.40
2023-01-25T20:03:21.251Z,3.40
2023-01-25T20:05:58.189Z,3.30
2023-01-25T20:08:34.256Z,3.20
2023-01-25T20:11:02.879Z,3.20
2023-01-25T20:13:29.930Z,3.20
2023-01-25T20:16:04.273Z,3.20
2023-01-25T20:18:31.935Z,3.10
2023-01-25T20:21:17.246Z,3.00
2023-01-25T20:23:48.098Z,3.00
2023-01-25T20:26:27.178Z,2.90
2023-01-25T20:28:55.175Z,2.80
2023-01-25T20:31:43.260Z,2.80
2023-01-25T20:34:28.277Z,2.90
2023-01-25T20:37:02.354Z,2.90
2023-01-25T20:39:29.495Z,3.00
2023-01-25T20:41:56.491Z,2.80
2023-01-25T20:44:30.254Z,2.70
2023-01-25T20:47:04.193Z,2.70
2023-01-25T20:49:31.192Z,2.80
2023-01-25T20:51:58.229Z,2.90
2023-01-25T20:54:32.232Z,2.90
2023-01-25T20:56:59.249Z,3.10
2023-01-25T20:59:33.188Z,2.90
2023-01-25T21:02:00.345Z,2.90
2023-01-25T21:04:27.378Z,2.90
2023-01-25T21:07:01.214Z,2.70
2023-01-25T21:09:28.384Z,2.60
2023-01-25T21:12:02.198Z,2.50
2023-01-25T21:14:29.221Z,2.40
2023-01-25T21:16:56.342Z,2.30
2023-01-25T21:19:30.253Z,2.30
2023-01-25T21:22:03.435Z,2.20
2023-01-25T21:24:30.567Z,2.20
2023-01-25T21:27:04.246Z,2.10
2023-01-25T21:29:31.541Z,2.10
2023-01-25T21:31:58.735Z,2.00
2023-01-25T21:34:32.249Z,2.00
2023-01-25T21:36:59.723Z,1.90
2023-01-25T21:39:34.246Z,1.90
2023-01-25T21:42:01.452Z,1.90
2023-01-25T21:44:28.498Z,2.00
2023-01-25T21:47:28.999Z,1.90
2023-01-25T21:49:54.186Z,1.90
2023-01-25T21:52:27.263Z,1.90
2023-01-25T21:54:54.256Z,1.80
2023-01-25T21:57:28.243Z,1.90
2023-01-25T21:59:55.334Z,2.00
2023-01-25T22:02:22.450Z,2.00
2023-01-25T22:04:56.224Z,1.90
2023-01-25T22:07:29.292Z,1.90
2023-01-25T22:09:56.334Z,1.90
2023-01-25T22:12:30.315Z,1.90
2023-01-25T22:14:57.474Z,1.90
2023-01-25T22:17:24.687Z,1.90
2023-01-25T22:19:58.361Z,1.80
2023-01-25T22:22:25.498Z,1.70
2023-01-25T22:24:59.289Z,1.80
2023-01-25T22:27:56.332Z,1.70
2023-01-25T22:30:23.531Z,1.70
2023-01-25T22:32:57.303Z,1.60
2023-01-25T22:35:24.308Z,1.60
2023-01-25T22:38:05.279Z,1.60
2023-01-25T22:40:39.309Z,1.50
2023-01-25T22:43:06.416Z,1.50
2023-01-25T22:45:40.471Z,1.50
2023-01-25T22:48:07.485Z,1.40
2023-01-25T22:50:43.269Z,1.40
2023-01-25T22:53:10.272Z,1.40
2023-01-25T22:55:53.396Z,1.40
2023-01-25T22:58:20.529Z,1.40
2023-01-25T23:00:54.352Z,1.40
2023-01-25T23:03:21.469Z,1.40
2023-01-25T23:05:48.619Z,1.40
2023-01-25T23:08:22.368Z,1.50
2023-01-25T23:10:52.407Z,1.40
2023-01-25T23:13:27.465Z,1.30
2023-01-25T23:15:57.294Z,1.30
2023-01-25T23:18:31.282Z,1.20
2023-01-25T23:21:02.553Z,1.20
2023-01-25T23:27:27.267Z,1.20
2023-01-25T23:30:01.337Z,1.10
2023-01-25T23:32:28.976Z,1.10
2023-01-25T23:35:02.426Z,1.10
2023-01-25T23:37:29.525Z,1.20
2023-01-25T23:40:05.388Z,1.20
2023-01-25T23:42:39.507Z,1.10
2023-01-25T23:45:08.489Z,1.10
2023-01-25T23:47:46.382Z,1.10
2023-01-25T23:50:20.390Z,1.10
2023-01-25T23:52:54.408Z,1.20
2023-01-25T23:55:21.483Z,1.20
2023-01-25T23:57:55.372Z,1.20
